Time;durP1;ratioP1;P1;durP2;ratioP2;P2;SDS_P1;SDS_P2;PMS_P1;PMS_P2;Temp;Humidity;BMP_temperature;BMP_pressure;BME280_temperature;BME280_humidity;BME280_pressure;Samples;Min_cycle;Max_cycle;Signal;HPM_P1;HPM_P2
2022/10/22 00:00:59;;;;;;;0.63;0.40;;;;;;;14.30;100.00;99941.25;5076385;28;20284;-76
2022/10/22 00:03:25;;;;;;;0.57;0.50;;;;;;;14.27;100.00;99931.78;5077257;28;20208;-75
2022/10/22 00:05:50;;;;;;;1.20;0.60;;;;;;;14.24;100.00;99916.25;5078822;28;20566;-76
2022/10/22 00:08:15;;;;;;;0.60;0.43;;;;;;;14.23;100.00;99919.75;5081062;28;20199;-76
2022/10/22 00:10:41;;;;;;;1.70;0.80;;;;;;;14.21;100.00;99892.09;5079046;28;20183;-78
2022/10/22 00:13:06;;;;;;;2.83;0.60;;;;;;;14.20;100.00;99906.00;5081900;28;20209;-77
2022/10/22 00:15:31;;;;;;;0.80;0.40;;;;;;;14.18;100.00;99895.63;5076392;28;20185;-77
2022/10/22 00:17:57;;;;;;;0.70;0.33;;;;;;;14.17;100.00;99899.97;5080945;28;20181;-76
2022/10/22 00:20:22;;;;;;;1.27;0.40;;;;;;;14.16;100.00;99918.22;5081617;28;20275;-76
2022/10/22 00:22:48;;;;;;;0.83;0.57;;;;;;;14.15;100.00;99959.03;5080915;28;21003;-75
2022/10/22 00:25:14;;;;;;;0.63;0.30;;;;;;;14.13;100.00;99958.22;5076494;28;20192;-75
2022/10/22 00:27:39;;;;;;;0.47;0.30;;;;;;;14.13;100.00;99953.00;5085153;28;20182;-76
2022/10/22 00:30:05;;;;;;;0.83;0.47;;;;;;;14.13;100.00;99947.81;5073871;28;20673;-76
2022/10/22 00:32:30;;;;;;;1.17;0.30;;;;;;;14.13;100.00;99942.59;5080727;28;20215;-75
2022/10/22 00:34:56;;;;;;;1.03;0.20;;;;;;;14.12;100.00;99945.25;5079154;28;20296;-76
2022/10/22 00:37:21;;;;;;;0.47;0.40;;;;;;;14.12;100.00;99933.09;5076031;28;20268;-76
2022/10/22 00:39:46;;;;;;;0.40;0.37;;;;;;;14.12;100.00;99937.44;5080306;28;20206;-75
2022/10/22 00:42:18;;;;;;;0.50;0.30;;;;;;;14.11;100.00;99941.78;5080127;28;20201;-76
2022/10/22 00:45:05;;;;;;;0.63;0.40;;;;;;;14.11;100.00;99960.00;5080648;28;20194;-76
2022/10/22 00:47:43;;;;;;;1.33;0.30;;;;;;;14.11;100.00;99965.19;5082814;28;20189;-76
2022/10/22 00:50:14;;;;;;;0.87;0.40;;;;;;;14.10;100.00;99960.91;5080971;28;20216;-76
2022/10/22 00:52:40;;;;;;;0.30;0.30;;;;;;;14.11;100.00;99956.56;5081886;28;20760;-76
2022/10/22 00:55:05;;;;;;;1.03;0.50;;;;;;;14.11;100.00;99952.19;5081636;28;20201;-76
2022/10/22 00:57:32;;;;;;;0.40;0.40;;;;;;;14.11;100.00;99949.59;5082562;28;20556;-76
2022/10/22 00:59:58;;;;;;;1.00;0.40;;;;;;;14.12;100.00;99947.84;5083900;28;20185;-75
2022/10/22 01:02:23;;;;;;;0.70;0.30;;;;;;;14.12;100.00;99953.06;5083165;28;20209;-76
2022/10/22 01:04:49;;;;;;;1.13;0.30;;;;;;;14.13;100.00;99950.41;5076572;28;20230;-77
2022/10/22 01:07:17;;;;;;;1.80;0.40;;;;;;;14.13;100.00;99939.16;5081635;28;20203;-76
2022/10/22 01:09:58;;;;;;;1.30;0.80;;;;;;;14.18;100.00;99955.47;5083951;28;20204;-76
2022/10/22 01:12:35;;;;;;;1.00;0.40;;;;;;;14.18;100.00;99965.88;5082954;28;20214;-76
2022/10/22 01:15:21;;;;;;;1.90;0.40;;;;;;;14.19;100.00;99954.56;5085096;28;20189;-77
2022/10/22 01:18:02;;;;;;;1.37;0.50;;;;;;;14.21;100.00;99952.78;5080071;28;20197;-76
2022/10/22 01:20:47;;;;;;;1.87;0.50;;;;;;;14.22;100.00;99957.09;5076919;28;20676;-77
2022/10/22 01:23:49;;;;;;;0.90;0.50;;;;;;;14.23;100.00;99957.94;5081477;28;20565;-77
2022/10/22 01:26:38;;;;;;;1.50;0.50;;;;;;;14.22;100.00;99958.84;5081798;28;20287;-78
2022/10/22 01:29:17;;;;;;;1.57;0.40;;;;;;;14.21;100.00;99964.97;5081081;28;20184;-77
2022/10/22 01:31:47;;;;;;;0.73;0.50;;;;;;;14.20;100.00;99984.91;5079872;28;20208;-75
2022/10/22 01:34:16;;;;;;;0.53;0.40;;;;;;;14.19;100.00;100001.41;5082776;28;20744;-77
2022/10/22 01:36:43;;;;;;;0.80;0.40;;;;;;;14.17;100.00;100022.28;5082579;28;20401;-77
2022/10/22 01:39:11;;;;;;;0.77;0.50;;;;;;;14.17;100.00;100040.50;5078560;28;20890;-77
2022/10/22 01:41:39;;;;;;;0.50;0.40;;;;;;;14.16;100.00;100050.94;5078636;28;20294;-77
2022/10/22 01:44:04;;;;;;;0.97;0.50;;;;;;;14.18;100.00;100064.78;5080323;28;20184;-76
2022/10/22 01:46:29;;;;;;;0.70;0.50;;;;;;;14.16;100.00;100056.16;5078978;28;20194;-77
2022/10/22 01:49:15;;;;;;;0.97;0.40;;;;;;;14.17;100.00;100050.91;5080039;28;20215;-76
2022/10/22 01:52:05;;;;;;;2.50;0.40;;;;;;;14.16;100.00;100048.34;5082960;28;20361;-76
2022/10/22 01:54:38;;;;;;;0.63;0.43;;;;;;;14.15;100.00;100055.31;5076786;28;20254;-77
2022/10/22 01:57:27;;;;;;;1.50;0.50;;;;;;;14.17;100.00;100047.44;5075904;28;20188;-76
2022/10/22 02:00:05;;;;;;;0.90;0.50;;;;;;;14.17;100.00;100018.81;5083670;28;20901;-77
2022/10/22 02:02:33;;;;;;;4.67;0.70;;;;;;;14.15;100.00;100018.88;5080465;28;20207;-76
2022/10/22 02:05:07;;;;;;;0.97;0.43;;;;;;;14.12;100.00;99992.09;5080581;28;20684;-76
2022/10/22 02:07:42;;;;;;;2.00;0.40;;;;;;;14.09;100.00;100013.84;5080841;28;20192;-77
2022/10/22 02:10:09;;;;;;;2.07;0.50;;;;;;;14.06;100.00;100020.88;5081569;28;20267;-77
2022/10/22 02:12:37;;;;;;;1.17;0.57;;;;;;;14.02;100.00;100007.09;5077248;28;20287;-77
2022/10/22 02:15:03;;;;;;;2.20;0.50;;;;;;;13.98;100.00;99995.06;5075944;28;20185;-77
2022/10/22 02:17:33;;;;;;;1.17;0.50;;;;;;;13.96;100.00;99987.31;5077011;28;20294;-76
2022/10/22 02:20:22;;;;;;;0.90;0.40;;;;;;;13.95;100.00;99997.75;5079783;28;20242;-77
2022/10/22 02:22:48;;;;;;;1.23;0.60;;;;;;;13.91;100.00;99986.59;5081869;28;20213;-77
2022/10/22 02:25:15;;;;;;;1.53;0.50;;;;;;;13.89;100.00;99977.13;5086436;28;20196;-77
2022/10/22 02:28:18;;;;;;;0.43;0.40;;;;;;;13.86;100.00;99973.72;5086699;28;20185;-76
2022/10/22 02:30:50;;;;;;;0.60;0.50;;;;;;;13.84;100.00;99970.28;5061656;28;20227;-77
2022/10/22 02:33:23;;;;;;;0.57;0.43;;;;;;;13.83;100.00;99966.00;5085652;28;20201;-76
2022/10/22 02:35:50;;;;;;;1.53;0.70;;;;;;;13.80;100.00;99954.81;5084899;28;20738;-75
2022/10/22 02:38:18;;;;;;;0.50;0.50;;;;;;;13.78;100.00;99952.25;5085733;28;20287;-76
2022/10/22 02:40:43;;;;;;;0.50;0.50;;;;;;;13.76;100.00;99940.19;5077586;28;20193;-76
2022/10/22 02:43:09;;;;;;;1.17;0.50;;;;;;;13.75;100.00;99941.94;5085492;28;20188;-77
2022/10/22 02:45:34;;;;;;;1.07;0.73;;;;;;;13.74;100.00;99947.19;5080208;28;20200;-77
2022/10/22 02:47:59;;;;;;;1.17;0.50;;;;;;;13.72;100.00;99944.63;5079111;28;20567;-76
2022/10/22 02:50:25;;;;;;;1.93;0.60;;;;;;;13.71;100.00;99958.53;5083485;28;20218;-76
2022/10/22 02:52:50;;;;;;;1.13;0.50;;;;;;;13.69;100.00;99958.56;5079132;28;20239;-76
2022/10/22 02:55:16;;;;;;;0.77;0.50;;;;;;;13.68;100.00;99969.88;5085617;28;20211;-76
2022/10/22 02:57:41;;;;;;;1.10;0.50;;;;;;;13.67;100.00;99973.38;5080608;28;20232;-76
2022/10/22 03:00:08;;;;;;;1.23;0.50;;;;;;;13.67;100.00;99967.31;5082644;28;20258;-78
2022/10/22 03:02:33;;;;;;;0.60;0.40;;;;;;;13.67;100.00;99951.69;5085377;28;20238;-78
2022/10/22 03:04:59;;;;;;;2.10;0.57;;;;;;;13.66;100.00;99950.84;5080738;28;20188;-76
2022/10/22 03:07:24;;;;;;;0.70;0.60;;;;;;;13.66;100.00;99955.19;5077753;28;20186;-74
2022/10/22 03:09:50;;;;;;;0.70;0.70;;;;;;;13.64;100.00;99978.66;5083295;28;20223;-76
2022/10/22 03:12:15;;;;;;;0.37;0.33;;;;;;;13.63;100.00;99983.88;5079459;28;20263;-75
2022/10/22 03:14:40;;;;;;;0.90;0.60;;;;;;;13.63;100.00;99991.66;5079289;28;20572;-78
2022/10/22 03:17:05;;;;;;;1.00;0.50;;;;;;;13.61;100.00;99994.31;5086418;28;20227;-78
2022/10/22 03:19:31;;;;;;;1.00;0.50;;;;;;;13.61;100.00;99967.47;5080769;28;20274;-76
2022/10/22 03:22:01;;;;;;;0.53;0.53;;;;;;;13.59;100.00;99964.91;5084045;28;20210;-77
2022/10/22 03:24:32;;;;;;;0.90;0.50;;;;;;;13.58;100.00;99963.19;5083289;28;20207;-76
2022/10/22 03:26:57;;;;;;;1.27;0.60;;;;;;;13.55;100.00;99965.88;5084225;28;20205;-76
2022/10/22 03:29:26;;;;;;;0.60;0.40;;;;;;;13.53;100.00;99972.88;5078779;28;20188;-76
2022/10/22 03:31:52;;;;;;;0.50;0.50;;;;;;;13.49;100.00;99977.28;5081926;28;20335;-76
2022/10/22 03:34:18;;;;;;;0.70;0.47;;;;;;;13.43;100.00;99976.59;5078399;28;20210;-76
2022/10/22 03:36:43;;;;;;;0.63;0.50;;;;;;;13.35;100.00;99977.63;5069781;28;20786;-76
2022/10/22 03:39:11;;;;;;;0.60;0.60;;;;;;;13.29;100.00;99987.31;5073228;28;20204;-77
2022/10/22 03:41:37;;;;;;;0.60;0.60;;;;;;;13.20;100.00;99994.44;5077219;28;20296;-77
2022/10/22 03:44:04;;;;;;;2.00;0.70;;;;;;;13.13;100.00;100000.69;5077005;28;20240;-75
2022/10/22 03:46:29;;;;;;;1.67;0.60;;;;;;;13.06;100.00;99999.13;5074584;28;20188;-76
2022/10/22 03:48:54;;;;;;;1.03;0.70;;;;;;;13.01;100.00;100006.19;5079839;28;20202;-76
2022/10/22 03:51:19;;;;;;;1.63;0.60;;;;;;;12.97;100.00;100005.38;5081364;28;20636;-77
2022/10/22 03:53:45;;;;;;;0.70;0.50;;;;;;;12.93;100.00;100011.56;5082581;28;20635;-76
2022/10/22 03:56:11;;;;;;;0.70;0.70;;;;;;;12.90;100.00;100017.66;5083790;28;20195;-76
2022/10/22 03:58:38;;;;;;;1.47;0.70;;;;;;;12.88;100.00;100008.22;5081984;28;20690;-76
2022/10/22 04:01:06;;;;;;;1.10;0.70;;;;;;;12.85;100.00;100018.66;5077823;28;20215;-77
2022/10/22 04:03:31;;;;;;;0.87;0.83;;;;;;;12.83;100.00;100026.50;5075531;28;20190;-76
2022/10/22 04:06:05;;;;;;;1.43;0.63;;;;;;;12.80;100.00;100031.75;5085205;28;20187;-77
2022/10/22 04:08:31;;;;;;;0.60;0.60;;;;;;;12.76;100.00;100043.09;5081981;28;20189;-76
2022/10/22 04:10:56;;;;;;;1.33;0.60;;;;;;;12.76;100.00;100038.75;5083354;28;20213;-75
2022/10/22 04:13:21;;;;;;;0.87;0.70;;;;;;;12.77;100.00;100043.06;5075793;28;20280;-76
2022/10/22 04:15:47;;;;;;;2.60;0.87;;;;;;;12.76;100.00;100041.38;5083431;28;20190;-76
2022/10/22 04:18:12;;;;;;;1.47;0.87;;;;;;;12.76;100.00;100043.97;5084305;28;20638;-77
2022/10/22 04:20:37;;;;;;;1.13;0.90;;;;;;;12.73;100.00;100044.03;5084739;28;20194;-77
2022/10/22 04:23:03;;;;;;;1.13;0.70;;;;;;;12.70;100.00;100038.88;5083179;28;20287;-76
2022/10/22 04:25:28;;;;;;;0.60;0.60;;;;;;;12.68;100.00;100043.25;5082862;28;20199;-76
2022/10/22 04:27:53;;;;;;;1.77;0.83;;;;;;;12.64;100.00;100046.78;5084805;28;20250;-77
2022/10/22 04:30:19;;;;;;;1.80;0.73;;;;;;;12.60;100.00;100043.41;5086377;28;20198;-77
2022/10/22 04:32:44;;;;;;;1.13;0.80;;;;;;;12.57;100.00;100053.84;5082754;28;20717;-76
2022/10/22 04:35:09;;;;;;;0.73;0.70;;;;;;;12.55;100.00;100053.06;5090932;28;20193;-77
2022/10/22 04:37:34;;;;;;;1.63;0.77;;;;;;;12.54;100.00;100045.28;5084765;28;20200;-77
2022/10/22 04:40:00;;;;;;;1.47;1.00;;;;;;;12.52;100.00;100049.66;5085091;28;20266;-77
2022/10/22 04:42:25;;;;;;;0.87;0.87;;;;;;;12.50;100.00;100047.94;5087265;28;20233;-77
2022/10/22 04:44:50;;;;;;;1.10;0.90;;;;;;;12.49;100.00;100059.22;5087460;28;20624;-77
2022/10/22 04:47:16;;;;;;;1.70;1.03;;;;;;;12.50;100.00;100058.31;5087551;28;20187;-77
2022/10/22 04:49:41;;;;;;;0.90;0.87;;;;;;;12.51;100.00;100051.41;5080126;28;20888;-76
2022/10/22 04:52:06;;;;;;;1.10;0.80;;;;;;;12.55;100.00;100054.78;5090061;28;20299;-77
2022/10/22 04:54:32;;;;;;;1.17;1.00;;;;;;;12.57;100.00;100050.41;5078849;28;20233;-75
2022/10/22 04:56:57;;;;;;;1.30;1.17;;;;;;;12.58;100.00;100045.19;5084655;28;20204;-76
2022/10/22 04:59:22;;;;;;;1.20;1.10;;;;;;;12.59;100.00;100054.69;5091477;28;20262;-75
2022/10/22 05:01:47;;;;;;;1.57;1.10;;;;;;;12.61;100.00;100050.31;5090790;28;20210;-77
2022/10/22 05:04:15;;;;;;;0.87;0.80;;;;;;;12.60;100.00;100061.59;5089266;28;20190;-77
2022/10/22 05:06:41;;;;;;;2.20;1.13;;;;;;;12.57;100.00;100064.25;5085447;28;20218;-76
2022/10/22 05:09:10;;;;;;;2.20;1.37;;;;;;;12.55;100.00;100058.25;5085104;28;20532;-76
2022/10/22 05:11:40;;;;;;;1.40;1.20;;;;;;;12.53;100.00;100066.94;5083948;28;20242;-76
2022/10/22 05:14:06;;;;;;;2.47;1.60;;;;;;;12.49;100.00;100068.75;5077298;28;20240;-76
2022/10/22 05:16:33;;;;;;;1.73;1.63;;;;;;;12.49;100.00;100068.75;5088779;28;20194;-77
2022/10/22 05:19:00;;;;;;;2.30;1.80;;;;;;;12.47;100.00;100076.59;5085395;28;20194;-77
2022/10/22 05:21:26;;;;;;;3.37;2.80;;;;;;;12.46;100.00;100089.56;5091330;28;20575;-77
2022/10/22 05:23:53;;;;;;;3.23;2.30;;;;;;;12.45;100.00;100090.47;5087047;28;20206;-77
2022/10/22 05:26:21;;;;;;;2.30;2.10;;;;;;;12.44;100.00;100088.75;5085323;28;20201;-77
2022/10/22 05:28:47;;;;;;;1.80;1.50;;;;;;;12.44;100.00;100093.94;5088011;28;20193;-75
2022/10/22 05:31:13;;;;;;;2.07;1.40;;;;;;;12.42;100.00;100099.16;5086185;28;20799;-77
2022/10/22 05:33:40;;;;;;;2.13;1.40;;;;;;;12.40;100.00;100097.50;5087514;28;20301;-76
2022/10/22 05:36:07;;;;;;;1.90;1.27;;;;;;;12.39;100.00;100103.56;5081849;28;20195;-76
2022/10/22 05:38:34;;;;;;;2.17;1.40;;;;;;;12.38;100.00;100094.06;5084911;28;20214;-77
2022/10/22 05:41:14;;;;;;;1.83;1.30;;;;;;;12.37;100.00;100102.75;5087489;28;20288;-76
2022/10/22 05:43:39;;;;;;;1.50;1.10;;;;;;;12.35;100.00;100106.22;5086449;28;20194;-76
2022/10/22 05:46:17;;;;;;;1.30;1.20;;;;;;;12.35;100.00;100102.75;5079680;28;20187;-76
2022/10/22 05:48:43;;;;;;;2.43;1.23;;;;;;;12.33;100.00;100113.16;5081781;28;20200;-76
2022/10/22 05:51:11;;;;;;;1.53;1.07;;;;;;;12.35;100.00;100128.69;5086784;28;20201;-76
2022/10/22 05:53:39;;;;;;;2.60;1.30;;;;;;;12.37;100.00;100128.69;5080053;28;20215;-76
2022/10/22 05:56:07;;;;;;;1.70;1.00;;;;;;;12.40;100.00;100128.63;5081129;28;20205;-76
2022/10/22 05:58:33;;;;;;;1.17;0.90;;;;;;;12.44;100.00;100131.13;5087270;28;20186;-76
2022/10/22 06:01:27;;;;;;;1.37;1.00;;;;;;;12.49;100.00;100134.47;5088282;28;20213;-76
2022/10/22 06:03:58;;;;;;;1.93;0.90;;;;;;;12.52;100.00;100138.78;5085333;28;20204;-76
2022/10/22 06:06:44;;;;;;;1.93;1.00;;;;;;;12.58;100.00;100135.22;5081966;28;20187;-77
2022/10/22 06:09:20;;;;;;;1.20;1.10;;;;;;;12.62;100.00;100134.25;5085402;28;20223;-76
2022/10/22 06:11:46;;;;;;;1.20;1.10;;;;;;;12.62;100.00;100139.47;5084794;28;20233;-75
2022/10/22 06:14:12;;;;;;;1.50;1.20;;;;;;;12.64;100.00;100137.66;5083703;28;20301;-76
2022/10/22 06:16:38;;;;;;;1.07;1.07;;;;;;;12.65;100.00;100136.78;5086253;28;20281;-75
2022/10/22 06:19:03;;;;;;;2.07;1.10;;;;;;;12.66;100.00;100133.28;5080153;28;20200;-76
2022/10/22 06:21:29;;;;;;;1.87;1.03;;;;;;;12.68;100.00;100135.88;5081174;28;20206;-76
2022/10/22 06:23:56;;;;;;;1.40;1.00;;;;;;;12.69;100.00;100135.84;5088080;28;20186;-78
2022/10/22 06:26:21;;;;;;;1.30;1.00;;;;;;;12.70;100.00;100145.34;5087317;28;20286;-78
2022/10/22 06:28:46;;;;;;;2.90;1.50;;;;;;;12.71;100.00;100147.06;5078522;28;20266;-76
2022/10/22 06:31:12;;;;;;;1.33;1.10;;;;;;;12.71;100.00;100151.38;5075093;28;20210;-77
2022/10/22 06:33:41;;;;;;;1.93;1.43;;;;;;;12.71;100.00;100159.16;5085198;28;20210;-75
2022/10/22 06:36:09;;;;;;;1.80;1.20;;;;;;;12.72;100.00;100164.34;5080949;28;20240;-75
2022/10/22 06:38:34;;;;;;;1.20;1.10;;;;;;;12.73;100.00;100168.66;5086658;28;20235;-76
2022/10/22 06:41:05;;;;;;;1.30;1.10;;;;;;;12.75;100.00;100168.59;5082110;28;20653;-76
2022/10/22 06:43:30;;;;;;;1.10;1.00;;;;;;;12.77;100.00;100170.31;5078880;28;20177;-75
2022/10/22 06:46:00;;;;;;;1.83;1.10;;;;;;;12.79;100.00;100168.50;5084888;28;20205;-77
2022/10/22 06:48:26;;;;;;;1.20;0.97;;;;;;;12.82;100.00;100167.63;5085920;28;20654;-76
2022/10/22 06:50:51;;;;;;;1.27;0.90;;;;;;;12.85;100.00;100170.16;5079501;28;20206;-76
2022/10/22 06:53:16;;;;;;;1.27;0.90;;;;;;;12.88;100.00;100175.25;5088587;28;20231;-76
2022/10/22 06:55:41;;;;;;;1.60;0.97;;;;;;;12.92;100.00;100178.69;5080360;28;20284;-76
2022/10/22 06:58:07;;;;;;;0.70;0.70;;;;;;;12.95;100.00;100179.47;5085785;28;20239;-77
2022/10/22 07:00:32;;;;;;;1.00;0.90;;;;;;;13.00;100.00;100181.97;5082650;28;20207;-77
2022/10/22 07:02:58;;;;;;;1.17;1.07;;;;;;;13.05;100.00;100190.53;5084371;28;20274;-77
2022/10/22 07:05:23;;;;;;;1.10;0.90;;;;;;;13.12;100.00;100188.66;5083944;28;20194;-77
2022/10/22 07:07:48;;;;;;;0.80;0.70;;;;;;;13.21;100.00;100192.81;5081346;28;20307;-77
2022/10/22 07:10:14;;;;;;;0.97;0.90;;;;;;;13.29;100.00;100201.28;5084424;28;20193;-77
2022/10/22 07:12:39;;;;;;;0.83;0.83;;;;;;;13.37;100.00;100206.31;5086183;28;20212;-78
2022/10/22 07:15:05;;;;;;;0.80;0.80;;;;;;;13.46;100.00;100202.69;5081960;28;20192;-77
2022/10/22 07:17:30;;;;;;;0.73;0.70;;;;;;;13.54;100.00;100205.94;5084856;28;20190;-77
2022/10/22 07:19:55;;;;;;;0.90;0.80;;;;;;;13.62;100.00;100213.56;5080213;28;20192;-77
2022/10/22 07:22:21;;;;;;;0.90;0.90;;;;;;;13.67;100.00;100207.41;5083638;28;20233;-77
2022/10/22 07:24:46;;;;;;;1.03;0.97;;;;;;;13.73;100.00;100211.59;5084389;28;20194;-76
2022/10/22 07:27:11;;;;;;;1.20;1.00;;;;;;;13.77;100.00;100218.44;5084844;28;20239;-77
2022/10/22 07:29:37;;;;;;;1.57;1.43;;;;;;;13.82;100.00;100220.94;5085056;28;21032;-77
2022/10/22 07:32:02;;;;;;;1.33;0.90;;;;;;;13.89;100.00;100227.69;5086916;28;20205;-77
2022/10/22 07:34:27;;;;;;;1.20;0.97;;;;;;;13.97;100.00;100230.13;5085628;28;20247;-77
2022/10/22 07:36:52;;;;;;;1.03;0.97;;;;;;;14.06;100.00;100234.25;5084583;28;20196;-76
2022/10/22 07:39:18;;;;;;;1.37;1.20;;;;;;;14.13;100.00;100235.81;5081973;28;20182;-77
2022/10/22 07:41:43;;;;;;;1.17;1.03;;;;;;;14.26;100.00;100229.41;5072070;28;20665;-77
2022/10/22 07:44:08;;;;;;;2.27;1.10;;;;;;;14.41;100.00;100235.13;5082723;28;20731;-77
2022/10/22 07:46:34;;;;;;;1.50;1.20;;;;;;;14.58;100.00;100237.28;5084047;28;20280;-76
2022/10/22 07:48:59;;;;;;;1.53;1.13;;;;;;;14.77;100.00;100238.53;5077458;28;20667;-76
2022/10/22 07:51:25;;;;;;;2.50;1.10;;;;;;;14.98;100.00;100235.38;5080465;28;20301;-76
2022/10/22 07:53:50;;;;;;;0.97;0.90;;;;;;;15.13;100.00;100239.28;5078956;28;20213;-76
2022/10/22 07:56:16;;;;;;;2.33;1.30;;;;;;;15.31;100.00;100240.53;5072531;28;20188;-77
2022/10/22 07:58:41;;;;;;;1.30;1.00;;;;;;;15.44;100.00;100228.81;5078817;28;20180;-77
2022/10/22 08:01:07;;;;;;;1.70;1.20;;;;;;;15.48;100.00;100232.19;5089794;28;20201;-77
2022/10/22 08:03:33;;;;;;;1.53;0.80;;;;;;;15.47;100.00;100230.47;5077090;28;20657;-75
2022/10/22 08:05:59;;;;;;;1.30;1.20;;;;;;;15.41;100.00;100236.72;5074017;28;20748;-78
2022/10/22 08:08:25;;;;;;;3.57;1.27;;;;;;;15.36;100.00;100236.00;5072238;28;20653;-76
2022/10/22 08:10:52;;;;;;;1.03;1.00;;;;;;;15.29;100.00;100237.09;5070171;28;20304;-76
2022/10/22 08:13:18;;;;;;;1.87;0.90;;;;;;;15.21;100.00;100239.94;5065384;28;20228;-75
2022/10/22 08:15:45;;;;;;;3.07;1.07;;;;;;;15.16;100.00;100242.69;5070233;28;20216;-75
2022/10/22 08:18:11;;;;;;;2.43;1.30;;;;;;;15.14;100.00;100247.06;5075652;28;20193;-77
2022/10/22 08:20:36;;;;;;;1.20;1.10;;;;;;;15.13;100.00;100255.78;5070832;28;20224;-77
2022/10/22 08:23:01;;;;;;;1.30;1.20;;;;;;;15.15;100.00;100254.00;5073643;28;20173;-75
2022/10/22 08:25:27;;;;;;;1.20;1.10;;;;;;;15.20;100.00;100257.31;5069438;28;20712;-76
2022/10/22 08:27:52;;;;;;;1.17;1.07;;;;;;;15.25;100.00;100254.59;5072215;28;20197;-76
2022/10/22 08:30:18;;;;;;;1.00;0.90;;;;;;;15.30;100.00;100257.91;5074219;28;20192;-76
2022/10/22 08:32:44;;;;;;;2.10;1.10;;;;;;;15.33;100.00;100267.41;5071973;28;20209;-76
2022/10/22 08:35:09;;;;;;;1.13;1.03;;;;;;;15.35;100.00;100265.59;5072178;28;20651;-76
2022/10/22 08:37:35;;;;;;;1.10;1.00;;;;;;;15.33;100.00;100268.25;5079428;28;20204;-75
2022/10/22 08:40:00;;;;;;;1.50;1.40;;;;;;;15.29;100.00;100273.59;5078131;28;20202;-76
2022/10/22 08:42:29;;;;;;;1.50;1.40;;;;;;;15.26;100.00;100268.47;5079353;28;20696;-75
2022/10/22 08:45:11;;;;;;;2.77;1.70;;;;;;;15.24;100.00;100271.13;5081304;28;22399;-75
2022/10/22 08:47:46;;;;;;;1.50;1.40;;;;;;;15.21;100.00;100271.22;5067348;28;20193;-75
2022/10/22 08:50:18;;;;;;;1.60;1.50;;;;;;;15.22;100.00;100280.75;5072241;28;20211;-76
2022/10/22 08:52:48;;;;;;;2.00;1.37;;;;;;;15.27;100.00;100278.00;5074738;28;20269;-77
2022/10/22 08:55:14;;;;;;;1.90;1.50;;;;;;;15.32;100.00;100282.19;5072566;28;20216;-76
2022/10/22 08:57:49;;;;;;;3.17;1.30;;;;;;;15.37;100.00;100285.53;5072648;28;20189;-76
2022/10/22 09:00:33;;;;;;;1.47;1.37;;;;;;;15.44;100.00;100280.09;5075462;28;20188;-77
2022/10/22 09:03:38;;;;;;;1.17;1.00;;;;;;;15.49;100.00;100286.91;5075339;28;21005;-76
2022/10/22 09:06:18;;;;;;;1.40;1.30;;;;;;;15.61;100.00;100292.66;5062272;28;20203;-76
2022/10/22 09:08:46;;;;;;;1.17;0.90;;;;;;;15.75;100.00;100293.09;5075834;28;20181;-76
2022/10/22 09:11:11;;;;;;;1.67;1.00;;;;;;;15.88;100.00;100300.59;5074529;28;20250;-77
2022/10/22 09:13:37;;;;;;;1.93;1.00;;;;;;;15.94;100.00;100305.63;5072648;28;20682;-77
2022/10/22 09:16:34;;;;;;;1.50;1.23;;;;;;;15.98;100.00;100317.66;5078743;28;20296;-76
2022/10/22 09:19:17;;;;;;;1.30;1.20;;;;;;;16.12;100.00;100304.19;5076444;28;20626;-76
2022/10/22 09:21:58;;;;;;;1.60;1.07;;;;;;;16.34;100.00;100311.31;5074328;28;20221;-76
2022/10/22 09:24:36;;;;;;;1.00;0.90;;;;;;;16.53;100.00;100309.81;5082151;28;20177;-77
2022/10/22 09:27:18;;;;;;;0.90;0.60;;;;;;;16.70;100.00;100324.06;5082410;28;20316;-76
2022/10/22 09:29:46;;;;;;;1.63;1.10;;;;;;;16.83;100.00;100322.75;5074405;28;20709;-76
2022/10/22 09:32:11;;;;;;;1.70;0.93;;;;;;;16.96;100.00;100330.19;5077660;28;20698;-77
2022/10/22 09:34:37;;;;;;;1.80;0.90;;;;;;;17.05;100.00;100322.88;5082742;28;20220;-76
2022/10/22 09:37:06;;;;;;;1.17;0.60;;;;;;;17.17;100.00;100321.59;5075401;28;20191;-76
2022/10/22 09:39:46;;;;;;;0.97;0.70;;;;;;;17.26;100.00;100330.88;5102140;28;20182;-72
2022/10/22 09:42:17;;;;;;;0.70;0.60;;;;;;;17.31;100.00;100328.94;5086015;28;20198;-75
2022/10/22 09:44:43;;;;;;;1.90;1.23;;;;;;;17.40;100.00;100330.34;5086783;28;20205;-76
2022/10/22 09:47:37;;;;;;;1.33;0.90;;;;;;;17.49;100.00;100324.78;5084702;28;20241;-76
2022/10/22 09:50:11;;;;;;;0.70;0.70;;;;;;;17.59;100.00;100324.44;5083960;28;20187;-75
2022/10/22 09:52:38;;;;;;;0.87;0.70;;;;;;;17.67;100.00;100330.25;5078834;28;20207;-75
2022/10/22 09:55:17;;;;;;;1.03;0.70;;;;;;;17.75;100.00;100327.34;5070232;28;20210;-75
2022/10/22 09:57:42;;;;;;;1.47;0.70;;;;;;;17.81;100.00;100333.19;5083364;28;20212;-76
2022/10/22 10:00:10;;;;;;;1.37;0.70;;;;;;;17.92;100.00;100332.75;5075074;28;20335;-75
2022/10/22 10:02:42;;;;;;;2.37;0.80;;;;;;;17.97;100.00;100330.84;5082842;28;20216;-76
2022/10/22 10:05:18;;;;;;;1.87;0.80;;;;;;;18.04;100.00;100328.84;5076830;28;20185;-76
2022/10/22 10:07:43;;;;;;;0.90;0.70;;;;;;;18.12;100.00;100331.16;5084719;28;20375;-75
2022/10/22 10:10:37;;;;;;;1.67;0.80;;;;;;;18.20;100.00;100333.47;5086779;28;20833;-77
2022/10/22 10:13:43;;;;;;;1.00;0.90;;;;;;;18.26;100.00;100341.09;5068121;28;20216;-75
2022/10/22 10:16:41;;;;;;;1.63;1.00;;;;;;;18.31;100.00;100336.50;5070909;28;20188;-75
2022/10/22 10:19:19;;;;;;;1.27;0.80;;;;;;;18.39;100.00;100337.06;5074814;28;20188;-77
2022/10/22 10:21:50;;;;;;;1.20;0.70;;;;;;;18.47;100.00;100335.88;5080076;28;20216;-77
2022/10/22 10:24:30;;;;;;;1.07;0.70;;;;;;;18.55;100.00;100339.06;5074089;28;20190;-75
2022/10/22 10:27:24;;;;;;;1.47;0.90;;;;;;;18.63;100.00;100342.19;5076425;28;20185;-76
2022/10/22 10:29:58;;;;;;;1.03;0.70;;;;;;;18.69;100.00;100348.94;5083067;28;20302;-77
2022/10/22 10:32:49;;;;;;;1.80;0.63;;;;;;;18.66;100.00;100343.84;5082676;28;20794;-76
2022/10/22 10:35:20;;;;;;;1.27;1.00;;;;;;;18.76;100.00;100347.78;5079364;28;20192;-76
2022/10/22 10:38:08;;;;;;;0.63;0.63;;;;;;;18.97;100.00;100359.16;5085320;28;20203;-76
2022/10/22 10:40:44;;;;;;;2.23;0.70;;;;;;;19.21;100.00;100359.00;5072710;28;20194;-74
2022/10/22 10:43:14;;;;;;;1.07;0.87;;;;;;;19.42;100.00;100346.72;5076844;28;20185;-76
2022/10/22 10:46:06;;;;;;;0.93;0.70;;;;;;;19.64;100.00;100345.72;5083929;28;20216;-76
2022/10/22 10:48:50;;;;;;;1.00;0.90;;;;;;;19.70;100.00;100348.09;5083998;28;20189;-76
2022/10/22 10:51:38;;;;;;;1.43;0.70;;;;;;;19.74;100.00;100351.41;5083900;28;20719;-76
2022/10/22 10:54:24;;;;;;;1.97;0.90;;;;;;;19.64;100.00;100351.84;5081553;28;20224;-75
2022/10/22 10:57:08;;;;;;;1.73;0.80;;;;;;;19.52;100.00;100344.50;5081308;28;20724;-76
2022/10/22 10:59:59;;;;;;;2.57;1.13;;;;;;;19.52;100.00;100346.28;5078524;28;20643;-75
2022/10/22 11:02:44;;;;;;;0.80;0.80;;;;;;;19.53;100.00;100343.59;5081392;28;20225;-75
2022/10/22 11:05:25;;;;;;;1.60;0.90;;;;;;;19.59;100.00;100345.94;5076850;28;20208;-74
2022/10/22 11:08:16;;;;;;;0.83;0.80;;;;;;;19.65;100.00;100352.69;5089248;28;20189;-75
2022/10/22 11:10:44;;;;;;;1.97;0.90;;;;;;;19.66;100.00;100336.00;5080261;28;20192;-76
2022/10/22 11:13:13;;;;;;;1.47;0.77;;;;;;;19.67;100.00;100339.47;5095667;28;20738;-76
2022/10/22 11:15:39;;;;;;;1.80;1.20;;;;;;;19.71;100.00;100338.41;5077816;28;20200;-75
2022/10/22 11:18:31;;;;;;;1.17;1.00;;;;;;;19.71;100.00;100336.66;5083705;28;20607;-75
2022/10/22 11:21:07;;;;;;;1.53;1.10;;;;;;;19.73;100.00;100331.31;5083293;28;20837;-75
2022/10/22 11:23:41;;;;;;;2.07;0.90;;;;;;;19.76;100.00;100341.69;5081163;28;20204;-75
2022/10/22 11:26:16;;;;;;;1.33;0.90;;;;;;;19.75;100.00;100335.56;5070652;28;20184;-75
2022/10/22 11:28:49;;;;;;;1.50;0.90;;;;;;;19.73;100.00;100329.56;5081461;28;20184;-75
2022/10/22 11:31:16;;;;;;;3.43;0.97;;;;;;;19.73;100.00;100336.56;5080644;28;20212;-75
2022/10/22 11:34:13;;;;;;;1.97;1.00;;;;;;;19.74;100.00;100333.03;5083341;28;20213;-76